Time;durP1;ratioP1;P1;durP2;ratioP2;P2;SDS_P1;SDS_P2;PMS_P1;PMS_P2;Temp;Humidity;BMP_temperature;BMP_pressure;BME280_temperature;BME280_humidity;BME280_pressure;Samples;Min_cycle;Max_cycle;Signal;HPM_P1;HPM_P2
2022/07/27 00:00:30;;;;;;;;;;;;;;;20.29;59.67;94841.25;5076150;28;1062;-51
2022/07/27 00:02:56;;;;;;;;;;;;;;;20.51;58.97;94842.66;5075712;28;1029;-51
2022/07/27 00:05:22;;;;;;;;;;;;;;;20.50;59.19;94841.00;5075726;28;1026;-51
2022/07/27 00:07:49;;;;;;;;;;;;;;;20.31;59.88;94853.78;5075761;28;996;-51
2022/07/27 00:10:15;;;;;;;;;;;;;;;20.22;59.62;94856.84;5075639;28;1045;-51
2022/07/27 00:12:41;;;;;;;;;;;;;;;20.26;59.67;94847.16;5075415;28;1049;-51
2022/07/27 00:15:08;;;;;;;;;;;;;;;20.19;60.31;94859.16;5075705;28;1910;-51
2022/07/27 00:17:34;;;;;;;;;;;;;;;20.28;60.09;94852.38;5075639;28;1036;-51
2022/07/27 00:20:00;;;;;;;;;;;;;;;20.41;59.38;94852.19;5075873;28;1063;-51
2022/07/27 00:22:26;;;;;;;;;;;;;;;20.21;60.64;94848.91;5075253;28;1231;-51
2022/07/27 00:24:52;;;;;;;;;;;;;;;19.68;61.96;94848.44;5075602;28;980;-51
2022/07/27 00:27:18;;;;;;;;;;;;;;;19.47;62.68;94838.03;5075125;28;1037;-51
2022/07/27 00:29:44;;;;;;;;;;;;;;;19.64;61.34;94847.22;5075337;28;1099;-51
2022/07/27 00:32:11;;;;;;;;;;;;;;;20.01;59.71;94847.25;5075226;28;1028;-51
2022/07/27 00:34:37;;;;;;;;;;;;;;;20.38;57.90;94849.94;5075082;28;1060;-51
2022/07/27 00:37:03;;;;;;;;;;;;;;;20.26;60.41;94857.16;5075052;28;1910;-51
2022/07/27 00:39:29;;;;;;;;;;;;;;;20.04;60.72;94854.13;5075263;28;1037;-50
2022/07/27 00:41:55;;;;;;;;;;;;;;;19.73;62.30;94849.66;5074847;28;1080;-51
2022/07/27 00:44:28;;;;;;;;;;;;;;;19.56;62.56;94855.69;5091200;28;1536;-51
2022/07/27 00:46:54;;;;;;;;;;;;;;;19.43;63.15;94855.81;5095310;28;1056;-51
2022/07/27 00:49:21;;;;;;;;;;;;;;;19.48;62.06;94855.94;5095271;28;1103;-51
2022/07/27 00:51:48;;;;;;;;;;;;;;;19.84;60.83;94857.91;5077185;28;1528;-51
2022/07/27 00:54:15;;;;;;;;;;;;;;;19.74;61.70;94867.63;5095093;28;962;-51
2022/07/27 00:56:41;;;;;;;;;;;;;;;19.43;62.93;94859.34;5094875;28;1996;-51
2022/07/27 00:59:07;;;;;;;;;;;;;;;19.44;62.54;94860.16;5095088;28;1024;-50
2022/07/27 01:01:33;;;;;;;;;;;;;;;19.56;61.86;94871.09;5095290;28;1060;-51
2022/07/27 01:03:59;;;;;;;;;;;;;;;19.56;62.52;94858.38;5094643;28;1044;-50
2022/07/27 01:06:25;;;;;;;;;;;;;;;19.50;62.73;94856.53;5094656;28;1028;-51
2022/07/27 01:08:51;;;;;;;;;;;;;;;19.30;63.58;94860.28;5094672;28;1032;-50
2022/07/27 01:11:17;;;;;;;;;;;;;;;18.87;65.25;94854.81;5094661;28;1037;-50
2022/07/27 01:13:43;;;;;;;;;;;;;;;18.81;65.67;94861.94;5094603;28;1871;-51
2022/07/27 01:16:10;;;;;;;;;;;;;;;18.95;64.96;94859.94;5094758;28;1906;-50
2022/07/27 01:18:37;;;;;;;;;;;;;;;18.98;64.20;94862.22;5094642;28;1049;-51
2022/07/27 01:21:05;;;;;;;;;;;;;;;19.14;64.01;94863.53;5094592;28;978;-51
2022/07/27 01:23:31;;;;;;;;;;;;;;;19.13;63.91;94871.91;5094264;28;1255;-51
2022/07/27 01:25:57;;;;;;;;;;;;;;;19.23;63.50;94861.41;5094460;28;1068;-51
2022/07/27 01:28:24;;;;;;;;;;;;;;;19.15;63.84;94870.63;5094203;28;1968;-51
2022/07/27 01:30:50;;;;;;;;;;;;;;;18.89;64.59;94869.81;5094378;28;1025;-50
2022/07/27 01:33:16;;;;;;;;;;;;;;;18.79;64.87;94876.72;5094269;28;1057;-50
2022/07/27 01:35:42;;;;;;;;;;;;;;;18.76;65.24;94877.97;5094076;28;1910;-51
2022/07/27 01:38:09;;;;;;;;;;;;;;;18.81;65.40;94875.47;5094020;28;1029;-51
2022/07/27 01:40:36;;;;;;;;;;;;;;;18.85;65.19;94882.09;5094213;28;988;-51
2022/07/27 01:43:02;;;;;;;;;;;;;;;18.87;65.23;94873.78;5089097;28;1218;-50
2022/07/27 01:45:28;;;;;;;;;;;;;;;18.81;65.96;94878.19;5073869;28;1084;-50
2022/07/27 01:47:54;;;;;;;;;;;;;;;18.59;66.32;94876.84;5073810;28;978;-50
2022/07/27 01:50:20;;;;;;;;;;;;;;;18.51;67.06;94876.03;5073729;28;1185;-50
2022/07/27 01:52:46;;;;;;;;;;;;;;;18.69;66.10;94872.59;5073667;28;1055;-51
2022/07/27 01:55:12;;;;;;;;;;;;;;;18.59;66.38;94882.25;5073436;28;2415;-51
2022/07/27 01:57:38;;;;;;;;;;;;;;;18.45;67.01;94885.03;5073618;28;1075;-50
2022/07/27 02:00:06;;;;;;;;;;;;;;;18.57;66.77;94876.22;5073661;28;1045;-50
2022/07/27 02:02:32;;;;;;;;;;;;;;;18.64;66.13;94882.44;5073614;28;1037;-50
2022/07/27 02:04:58;;;;;;;;;;;;;;;18.90;64.32;94878.75;5073216;28;1107;-50
2022/07/27 02:07:24;;;;;;;;;;;;;;;18.80;65.26;94875.66;5073510;28;1024;-50
2022/07/27 02:09:50;;;;;;;;;;;;;;;18.41;67.18;94881.09;5073290;28;1065;-50
2022/07/27 02:12:34;;;;;;;;;;;;;;;18.27;68.06;94877.63;5073389;28;1104;-50
2022/07/27 02:15:03;;;;;;;;;;;;;;;18.48;66.95;94875.66;5073418;28;1044;-50
2022/07/27 02:17:29;;;;;;;;;;;;;;;18.58;66.56;94880.59;5073239;28;1025;-51
2022/07/27 02:19:55;;;;;;;;;;;;;;;18.25;67.82;94885.16;5072996;28;1025;-51
2022/07/27 02:22:21;;;;;;;;;;;;;;;18.25;66.99;94885.16;5073037;28;1319;-51
2022/07/27 02:24:47;;;;;;;;;;;;;;;18.57;65.54;94881.63;5073196;28;1084;-51
2022/07/27 02:27:13;;;;;;;;;;;;;;;18.62;66.11;94881.81;5073466;28;1052;-51
2022/07/27 02:29:39;;;;;;;;;;;;;;;18.47;66.46;94882.94;5073281;28;1065;-51
2022/07/27 02:32:05;;;;;;;;;;;;;;;18.67;65.38;94879.31;5073339;28;1069;-50
2022/07/27 02:34:31;;;;;;;;;;;;;;;18.48;66.37;94887.31;5072872;28;1036;-53
2022/07/27 02:36:57;;;;;;;;;;;;;;;18.30;67.36;94885.31;5073139;28;1987;-50
2022/07/27 02:39:23;;;;;;;;;;;;;;;18.24;67.26;94888.06;5073244;28;1041;-51
2022/07/27 02:41:49;;;;;;;;;;;;;;;18.01;68.67;94884.00;5073211;28;1115;-50
2022/07/27 02:44:16;;;;;;;;;;;;;;;17.95;68.09;94892.97;5088038;28;1162;-50
2022/07/27 02:46:42;;;;;;;;;;;;;;;17.97;68.39;94893.56;5093464;28;1191;-50
2022/07/27 02:49:08;;;;;;;;;;;;;;;18.10;67.57;94890.81;5093054;28;1029;-51
2022/07/27 02:51:35;;;;;;;;;;;;;;;18.19;68.09;94898.69;5093346;28;982;-51
2022/07/27 02:54:01;;;;;;;;;;;;;;;18.33;67.22;94903.84;5092986;28;1088;-51
2022/07/27 02:56:27;;;;;;;;;;;;;;;18.36;66.75;94901.75;5093103;28;1910;-51
2022/07/27 02:58:54;;;;;;;;;;;;;;;18.43;66.48;94906.06;5093210;28;1027;-51
2022/07/27 03:01:20;;;;;;;;;;;;;;;18.44;66.97;94910.47;5093254;28;1065;-51
2022/07/27 03:03:46;;;;;;;;;;;;;;;18.30;67.99;94900.72;5093096;28;1028;-51
2022/07/27 03:06:12;;;;;;;;;;;;;;;17.89;69.53;94899.19;5092880;28;1174;-51
2022/07/27 03:08:38;;;;;;;;;;;;;;;17.76;69.57;94894.66;5093067;28;1000;-51
2022/07/27 03:11:05;;;;;;;;;;;;;;;17.78;69.92;94906.09;5092896;28;1108;-51
2022/07/27 03:13:31;;;;;;;;;;;;;;;17.87;69.38;94904.84;5075181;28;1087;-51
2022/07/27 03:15:57;;;;;;;;;;;;;;;17.87;69.79;94904.00;5092935;28;1986;-51
2022/07/27 03:18:23;;;;;;;;;;;;;;;17.56;70.74;94903.63;5092823;28;1041;-51
2022/07/27 03:20:49;;;;;;;;;;;;;;;17.54;70.85;94899.47;5092850;28;1016;-50
2022/07/27 03:23:18;;;;;;;;;;;;;;;17.65;70.59;94903.41;5092651;28;1101;-51
2022/07/27 03:25:44;;;;;;;;;;;;;;;17.77;69.82;94907.13;5092965;28;978;-51
2022/07/27 03:28:10;;;;;;;;;;;;;;;17.82;69.59;94903.78;5092995;28;968;-51
2022/07/27 03:30:36;;;;;;;;;;;;;;;17.84;69.78;94901.69;5095785;28;1027;-50
2022/07/27 03:33:02;;;;;;;;;;;;;;;17.85;69.57;94912.34;5096660;28;1106;-51
2022/07/27 03:35:29;;;;;;;;;;;;;;;17.78;70.14;94913.38;5096266;28;1984;-51
2022/07/27 03:37:55;;;;;;;;;;;;;;;17.76;70.33;94916.28;5096906;28;1045;-51
2022/07/27 03:40:21;;;;;;;;;;;;;;;17.81;70.19;94910.22;5096549;28;1098;-51
2022/07/27 03:42:47;;;;;;;;;;;;;;;17.68;70.50;94906.53;5093710;28;1212;-50
2022/07/27 03:45:13;;;;;;;;;;;;;;;17.79;70.19;94910.44;5076032;28;1063;-50
2022/07/27 03:47:39;;;;;;;;;;;;;;;18.21;68.25;94910.13;5076227;28;1033;-50
2022/07/27 03:50:05;;;;;;;;;;;;;;;18.43;67.80;94916.91;5075879;28;2002;-50
2022/07/27 03:52:31;;;;;;;;;;;;;;;18.45;67.97;94922.09;5076014;28;1044;-51
2022/07/27 03:54:57;;;;;;;;;;;;;;;18.35;68.14;94914.44;5076094;28;978;-50
2022/07/27 03:57:23;;;;;;;;;;;;;;;18.55;67.84;94922.47;5075965;28;1906;-48
2022/07/27 03:59:49;;;;;;;;;;;;;;;18.42;68.48;94914.41;5075950;28;1024;-51
2022/07/27 04:02:15;;;;;;;;;;;;;;;18.44;68.42;94910.47;5075899;28;1105;-51
2022/07/27 04:04:41;;;;;;;;;;;;;;;18.69;67.68;94920.53;5075410;28;1199;-50
2022/07/27 04:07:07;;;;;;;;;;;;;;;18.85;67.90;94916.50;5075749;28;1955;-50
2022/07/27 04:09:34;;;;;;;;;;;;;;;18.97;67.87;94922.88;5075726;28;1017;-50
2022/07/27 04:12:00;;;;;;;;;;;;;;;18.94;67.66;94917.06;5075681;28;1129;-50
2022/07/27 04:14:26;;;;;;;;;;;;;;;18.78;68.60;94924.66;5075866;28;1053;-50
2022/07/27 04:16:52;;;;;;;;;;;;;;;18.68;69.59;94930.50;5075477;28;1906;-51
2022/07/27 04:19:18;;;;;;;;;;;;;;;18.65;69.70;94930.13;5075439;28;1080;-50
2022/07/27 04:21:44;;;;;;;;;;;;;;;18.80;69.75;94927.09;5075319;28;1037;-50
2022/07/27 04:24:11;;;;;;;;;;;;;;;18.90;69.41;94932.94;5075350;28;1160;-50
2022/07/27 04:26:37;;;;;;;;;;;;;;;19.04;69.70;94929.06;5075486;28;980;-50
2022/07/27 04:29:03;;;;;;;;;;;;;;;19.17;69.70;94930.03;5075403;28;1108;-51
2022/07/27 04:31:29;;;;;;;;;;;;;;;19.22;68.65;94936.47;5075260;28;1046;-50
2022/07/27 04:33:55;;;;;;;;;;;;;;;19.36;69.33;94939.88;5075420;28;981;-50
2022/07/27 04:36:21;;;;;;;;;;;;;;;19.63;68.68;94937.75;5074668;28;1992;-50
2022/07/27 04:38:47;;;;;;;;;;;;;;;19.81;68.83;94945.16;5075481;28;1040;-50
2022/07/27 04:41:13;;;;;;;;;;;;;;;19.95;68.49;94945.84;5074377;28;1075;-50
2022/07/27 04:43:39;;;;;;;;;;;;;;;20.20;66.74;94953.09;5085361;28;1209;-50
2022/07/27 04:46:05;;;;;;;;;;;;;;;20.42;66.55;94951.59;5095147;28;958;-50
2022/07/27 04:48:32;;;;;;;;;;;;;;;20.52;66.86;94950.22;5095115;28;1100;-50
2022/07/27 04:50:58;;;;;;;;;;;;;;;20.45;67.61;94948.44;5094899;28;1041;-50
2022/07/27 04:53:24;;;;;;;;;;;;;;;20.42;67.71;94948.88;5095044;28;1013;-50
2022/07/27 04:55:50;;;;;;;;;;;;;;;20.79;63.32;94957.00;5095054;28;1906;-50
2022/07/27 04:58:16;;;;;;;;;;;;;;;21.08;63.43;94957.25;5095080;28;1024;-50
2022/07/27 05:00:42;;;;;;;;;;;;;;;21.34;63.59;94957.88;5076914;28;1084;-50
2022/07/27 05:03:09;;;;;;;;;;;;;;;21.52;63.09;94960.56;5094959;28;1065;-50
2022/07/27 05:05:35;;;;;;;;;;;;;;;21.64;62.34;94960.56;5094542;28;957;-50
2022/07/27 05:08:01;;;;;;;;;;;;;;;21.88;62.71;94963.31;5094683;28;1091;-50
2022/07/27 05:10:27;;;;;;;;;;;;;;;22.06;62.20;94963.19;5094994;28;963;-51
2022/07/27 05:12:54;;;;;;;;;;;;;;;22.22;61.77;94967.09;5094576;28;1028;-50
2022/07/27 05:15:20;;;;;;;;;;;;;;;22.26;59.66;94959.31;5094575;28;1910;-50
2022/07/27 05:17:46;;;;;;;;;;;;;;;22.30;57.49;94964.03;5094534;28;1061;-50
2022/07/27 05:20:12;;;;;;;;;;;;;;;22.40;55.68;94961.53;5094477;28;1960;-56
2022/07/27 05:22:38;;;;;;;;;;;;;;;22.31;53.58;94964.84;5094448;28;1212;-51
2022/07/27 05:25:05;;;;;;;;;;;;;;;22.13;55.17;94958.44;5094608;28;1061;-50
2022/07/27 05:27:31;;;;;;;;;;;;;;;22.18;58.42;94963.19;5094448;28;970;-50
2022/07/27 05:29:57;;;;;;;;;;;;;;;22.07;57.81;94966.75;5094593;28;930;-50
2022/07/27 05:32:23;;;;;;;;;;;;;;;22.49;58.20;94970.16;5094148;28;1041;-51
2022/07/27 05:34:50;;;;;;;;;;;;;;;23.15;56.48;94964.41;5094119;28;970;-51
2022/07/27 05:37:16;;;;;;;;;;;;;;;23.41;55.71;94973.88;5094256;28;1901;-50
2022/07/27 05:39:42;;;;;;;;;;;;;;;23.72;55.92;94972.50;5094321;28;1844;-51
2022/07/27 05:42:08;;;;;;;;;;;;;;;24.41;52.97;94976.00;5093909;28;1878;-51
2022/07/27 05:44:34;;;;;;;;;;;;;;;25.50;50.64;94986.09;5076129;28;1161;-51
2022/07/27 05:47:01;;;;;;;;;;;;;;;25.62;49.52;94974.97;5073542;28;974;-51
2022/07/27 05:49:27;;;;;;;;;;;;;;;25.47;49.45;94981.13;5073573;28;1084;-51
2022/07/27 05:51:53;;;;;;;;;;;;;;;25.81;49.87;94983.63;5073397;28;1037;-50
2022/07/27 05:54:19;;;;;;;;;;;;;;;25.74;50.31;94991.22;5072807;28;1053;-51
2022/07/27 05:56:46;;;;;;;;;;;;;;;24.80;52.00;94992.41;5073536;28;1993;-51
2022/07/27 05:59:12;;;;;;;;;;;;;;;24.22;53.39;94987.22;5073732;28;1032;-51
2022/07/27 06:01:38;;;;;;;;;;;;;;;23.85;54.30;94987.75;5073462;28;1087;-51
2022/07/27 06:04:04;;;;;;;;;;;;;;;23.63;56.54;94989.53;5073264;28;1064;-51
2022/07/27 06:09:15;;;;;;;;;;;;;;;23.37;55.15;94986.34;5073663;28;1060;-51
2022/07/27 06:11:42;;;;;;;;;;;;;;;23.38;55.57;94994.28;5073543;28;1112;-51
2022/07/27 06:14:08;;;;;;;;;;;;;;;23.31;57.50;94987.31;5073616;28;1869;-51
2022/07/27 06:16:34;;;;;;;;;;;;;;;23.44;56.86;94991.66;5073284;28;1992;-50
2022/07/27 06:19:00;;;;;;;;;;;;;;;23.92;55.97;94982.09;5073456;28;961;-51
2022/07/27 06:21:27;;;;;;;;;;;;;;;24.44;53.71;94979.06;5073611;28;1049;-50
2022/07/27 06:23:53;;;;;;;;;;;;;;;24.89;52.30;94977.19;5073047;28;1325;-50
2022/07/27 06:26:20;;;;;;;;;;;;;;;25.13;51.83;94981.31;5073629;28;1024;-51
2022/07/27 06:28:46;;;;;;;;;;;;;;;25.19;52.11;94978.63;5073240;28;1033;-51
2022/07/27 06:31:12;;;;;;;;;;;;;;;25.19;53.09;94982.19;5073182;28;990;-51
2022/07/27 06:33:38;;;;;;;;;;;;;;;25.36;52.06;94973.91;5073327;28;966;-50
2022/07/27 06:36:04;;;;;;;;;;;;;;;25.37;51.25;94977.50;5073321;28;2358;-51
2022/07/27 06:38:30;;;;;;;;;;;;;;;25.36;52.33;94982.13;5073091;28;1024;-50
2022/07/27 06:40:57;;;;;;;;;;;;;;;25.51;51.93;94981.44;5073148;28;1081;-51
2022/07/27 06:43:24;;;;;;;;;;;;;;;25.66;51.85;94975.28;5080780;28;1370;-51
2022/07/27 06:45:52;;;;;;;;;;;;;;;25.86;51.88;94971.91;5093301;28;1026;-51
2022/07/27 06:48:20;;;;;;;;;;;;;;;25.99;50.01;94967.91;5093080;28;1325;-51
2022/07/27 06:50:46;;;;;;;;;;;;;;;26.12;50.96;94963.91;5093511;28;1047;-51
2022/07/27 06:53:12;;;;;;;;;;;;;;;26.19;50.66;94970.81;5093051;28;1037;-51
2022/07/27 06:55:38;;;;;;;;;;;;;;;26.37;49.97;94957.75;5093176;28;1990;-51
2022/07/27 06:58:04;;;;;;;;;;;;;;;26.52;50.29;94954.28;5093036;28;1050;-51
2022/07/27 07:00:30;;;;;;;;;;;;;;;26.62;50.26;94957.94;5093175;28;1044;-51
2022/07/27 07:02:57;;;;;;;;;;;;;;;26.79;49.14;94952.25;5093299;28;1053;-51
2022/07/27 07:05:24;;;;;;;;;;;;;;;26.99;47.86;94956.97;5095999;28;985;-51
2022/07/27 07:07:50;;;;;;;;;;;;;;;27.11;47.38;94956.75;5097044;28;1111;-51
2022/07/27 07:10:16;;;;;;;;;;;;;;;27.16;47.76;94956.75;5097180;28;1004;-51
2022/07/27 07:12:42;;;;;;;;;;;;;;;27.10;47.60;94952.34;5096960;28;1076;-51
2022/07/27 07:15:09;;;;;;;;;;;;;;;27.18;48.30;94959.22;5096928;28;1000;-51
2022/07/27 07:17:35;;;;;;;;;;;;;;;27.39;48.03;94962.88;5097114;28;1910;-51
2022/07/27 07:20:03;;;;;;;;;;;;;;;27.53;47.06;94960.44;5097238;28;970;-51
2022/07/27 07:22:29;;;;;;;;;;;;;;;27.68;46.90;94962.38;5096837;28;1234;-52
2022/07/27 07:24:55;;;;;;;;;;;;;;;27.84;45.77;94953.03;5096768;28;1040;-52
2022/07/27 07:27:22;;;;;;;;;;;;;;;28.13;44.69;94953.31;5096853;28;1011;-52
2022/07/27 07:29:48;;;;;;;;;;;;;;;28.31;44.58;94951.13;5096564;28;961;-51
2022/07/27 07:32:15;;;;;;;;;;;;;;;28.22;45.38;94954.41;5096648;28;1021;-51
2022/07/27 07:34:41;;;;;;;;;;;;;;;28.60;44.48;94954.91;5096495;28;1028;-51
2022/07/27 07:37:07;;;;;;;;;;;;;;;28.86;43.70;94945.75;5096900;28;1975;-51
2022/07/27 07:39:34;;;;;;;;;;;;;;;29.01;42.48;94949.25;5096537;28;996;-51
2022/07/27 07:42:00;;;;;;;;;;;;;;;29.08;42.54;94956.38;5096563;28;1020;-52
2022/07/27 07:44:26;;;;;;;;;;;;;;;29.14;44.23;94944.25;5079335;28;1213;-52
2022/07/27 07:46:52;;;;;;;;;;;;;;;29.16;42.00;94940.13;5076354;28;1033;-51
2022/07/27 07:49:18;;;;;;;;;;;;;;;29.13;42.97;94931.59;5076088;28;1004;-52
2022/07/27 07:51:44;;;;;;;;;;;;;;;29.05;42.18;94932.19;5076249;28;1046;-52
2022/07/27 07:54:10;;;;;;;;;;;;;;;29.31;44.04;94935.63;5075810;28;1100;-51
2022/07/27 07:56:36;;;;;;;;;;;;;;;29.41;40.33;94934.75;5075968;28;1902;-52
2022/07/27 07:59:03;;;;;;;;;;;;;;;29.41;41.31;94932.00;5075736;28;1001;-52
2022/07/27 08:01:29;;;;;;;;;;;;;;;29.49;41.96;94929.44;5075920;28;1083;-52
2022/07/27 08:03:55;;;;;;;;;;;;;;;29.46;41.51;94938.28;5075874;28;1034;-52
2022/07/27 08:06:21;;;;;;;;;;;;;;;29.46;40.25;94935.53;5075573;28;1021;-51
2022/07/27 08:08:47;;;;;;;;;;;;;;;29.47;41.06;94936.38;5075669;28;1073;-52
2022/07/27 08:11:13;;;;;;;;;;;;;;;29.45;41.37;94933.88;5075766;28;1000;-51
2022/07/27 08:13:40;;;;;;;;;;;;;;;29.59;41.69;94934.06;5075547;28;1027;-52
2022/07/27 08:16:06;;;;;;;;;;;;;;;29.78;41.24;94935.06;5074817;28;1910;-52
2022/07/27 08:18:32;;;;;;;;;;;;;;;29.82;39.66;94934.47;5075462;28;1012;-52
2022/07/27 08:20:58;;;;;;;;;;;;;;;29.90;39.07;94931.09;5075772;28;957;-52
2022/07/27 08:23:25;;;;;;;;;;;;;;;29.93;40.20;94919.50;5075225;28;1183;-52
2022/07/27 08:25:52;;;;;;;;;;;;;;;30.27;39.05;94924.16;5075543;28;1034;-52
2022/07/27 08:28:18;;;;;;;;;;;;;;;30.54;38.89;94918.94;5075677;28;1037;-52
2022/07/27 08:30:45;;;;;;;;;;;;;;;30.65;39.32;94927.88;5075593;28;970;-52
2022/07/27 08:33:11;;;;;;;;;;;;;;;30.71;38.94;94917.63;5075481;28;1028;-52
2022/07/27 08:35:37;;;;;;;;;;;;;;;30.86;38.29;94914.66;5074970;28;1993;-52
2022/07/27 08:38:04;;;;;;;;;;;;;;;30.96;37.11;94919.25;5075324;28;1023;-52
2022/07/27 08:40:31;;;;;;;;;;;;;;;31.02;37.65;94914.50;5075093;28;952;-52
2022/07/27 08:42:59;;;;;;;;;;;;;;;30.99;36.75;94910.41;5079466;28;1186;-52
2022/07/27 08:45:25;;;;;;;;;;;;;;;30.81;36.97;94916.66;5095156;28;1028;-51
2022/07/27 08:47:51;;;;;;;;;;;;;;;30.81;38.05;94909.22;5095506;28;986;-51
2022/07/27 08:50:22;;;;;;;;;;;;;;;30.92;37.65;94910.78;5095151;28;1008;-52
2022/07/27 08:53:02;;;;;;;;;;;;;;;30.94;36.95;94899.41;5095296;28;1021;-52
2022/07/27 08:55:32;;;;;;;;;;;;;;;30.92;37.26;94896.97;5094868;28;1910;-52
2022/07/27 08:57:58;;;;;;;;;;;;;;;31.00;37.12;94894.66;5095367;28;1043;-52
2022/07/27 09:00:25;;;;;;;;;;;;;;;31.02;36.96;94886.88;5094970;28;973;-51
2022/07/27 09:02:51;;;;;;;;;;;;;;;31.07;37.57;94893.16;5095195;28;1020;-52
2022/07/27 09:05:17;;;;;;;;;;;;;;;31.20;37.74;94894.38;5094512;28;1032;-51
2022/07/27 09:07:43;;;;;;;;;;;;;;;31.29;37.55;94892.59;5094983;28;974;-52
2022/07/27 09:10:10;;;;;;;;;;;;;;;31.30;37.21;94894.25;5094543;28;1131;-51
2022/07/27 09:12:36;;;;;;;;;;;;;;;31.36;38.26;94889.47;5094814;28;1045;-52
2022/07/27 09:15:07;;;;;;;;;;;;;;;31.43;36.32;94887.13;5094708;28;978;-51
2022/07/27 09:17:34;;;;;;;;;;;;;;;31.48;37.42;94887.09;5094839;28;1906;-52
2022/07/27 09:20:03;;;;;;;;;;;;;;;31.52;36.54;94879.00;5076402;28;1068;-52
2022/07/27 09:22:51;;;;;;;;;;;;;;;31.53;37.45;94886.19;5094515;28;1081;-53
2022/07/27 09:25:19;;;;;;;;;;;;;;;31.57;36.55;94884.47;5094579;28;1040;-52
2022/07/27 09:27:48;;;;;;;;;;;;;;;31.68;36.48;94883.19;5094602;28;957;-52
2022/07/27 09:30:18;;;;;;;;;;;;;;;31.78;36.34;94882.19;5094356;28;1037;-52
2022/07/27 09:32:51;;;;;;;;;;;;;;;31.80;36.77;94879.94;5094423;28;1057;-52
2022/07/27 09:35:19;;;;;;;;;;;;;;;31.81;37.19;94878.81;5093925;28;973;-52
2022/07/27 09:37:45;;;;;;;;;;;;;;;31.80;36.62;94877.19;5094334;28;1037;-52
2022/07/27 09:40:15;;;;;;;;;;;;;;;31.81;36.21;94875.22;5094249;28;1042;-52
2022/07/27 09:42:42;;;;;;;;;;;;;;;31.84;35.54;94875.44;5092261;28;1173;-52
2022/07/27 09:45:28;;;;;;;;;;;;;;;31.87;35.26;94869.31;5073692;28;1080;-52
2022/07/27 09:48:07;;;;;;;;;;;;;;;31.83;34.92;94867.44;5073869;28;1059;-52
2022/07/27 09:50:33;;;;;;;;;;;;;;;31.96;36.09;94869.44;5073902;28;1042;-52
2022/07/27 09:53:16;;;;;;;;;;;;;;;32.11;34.91;94868.38;5074115;28;1088;-52
2022/07/27 09:55:43;;;;;;;;;;;;;;;32.05;35.63;94858.53;5073534;28;1988;-52
2022/07/27 09:58:09;;;;;;;;;;;;;;;32.03;35.69;94864.38;5073561;28;1206;-52
2022/07/27 10:00:35;;;;;;;;;;;;;;;31.97;34.79;94857.25;5073509;28;1005;-52
2022/07/27 10:03:01;;;;;;;;;;;;;;;31.96;33.82;94863.09;5073781;28;1026;-52
2022/07/27 10:05:27;;;;;;;;;;;;;;;32.03;35.17;94861.59;5073315;28;993;-52
2022/07/27 10:07:53;;;;;;;;;;;;;;;32.12;35.27;94858.13;5073748;28;1059;-52
2022/07/27 10:10:20;;;;;;;;;;;;;;;32.17;36.04;94855.28;5073312;28;1052;-52
2022/07/27 10:12:47;;;;;;;;;;;;;;;32.08;35.46;94853.22;5073553;28;1090;-52
2022/07/27 10:15:13;;;;;;;;;;;;;;;32.08;35.73;94853.22;5073551;28;970;-52
2022/07/27 10:17:41;;;;;;;;;;;;;;;31.99;34.89;94851.44;5073631;28;1909;-52
2022/07/27 10:20:08;;;;;;;;;;;;;;;32.00;35.14;94847.53;5073350;28;1834;-52
2022/07/27 10:22:48;;;;;;;;;;;;;;;32.08;35.46;94847.69;5073279;28;1093;-53
2022/07/27 10:25:14;;;;;;;;;;;;;;;32.10;33.83;94845.44;5073208;28;919;-52
2022/07/27 10:27:40;;;;;;;;;;;;;;;32.11;34.79;94840.72;5055484;28;1092;-52
2022/07/27 10:30:06;;;;;;;;;;;;;;;32.20;33.90;94849.94;5073531;28;980;-52
2022/07/27 10:32:33;;;;;;;;;;;;;;;32.32;33.45;94840.34;5073317;28;997;-52
2022/07/27 10:35:00;;;;;;;;;;;;;;;32.38;34.22;94825.25;5073229;28;958;-52
2022/07/27 10:37:27;;;;;;;;;;;;;;;32.40;34.64;94829.34;5073071;28;1914;-52
2022/07/27 10:42:45;;;;;;;;;;;;;;;32.64;33.71;94820.06;5075411;28;1245;-52
2022/07/27 10:45:13;;;;;;;;;;;;;;;32.71;34.16;94820.47;5093440;28;1061;-52
2022/07/27 10:47:45;;;;;;;;;;;;;;;32.69;34.85;94817.19;5093331;28;980;-52
2022/07/27 10:50:15;;;;;;;;;;;;;;;32.68;35.08;94810.00;5093279;28;1037;-52
2022/07/27 10:52:44;;;;;;;;;;;;;;;32.73;34.24;94814.63;5093126;28;1044;-52
2022/07/27 10:55:28;;;;;;;;;;;;;;;32.76;34.71;94803.72;5093446;28;1046;-52
2022/07/27 10:58:14;;;;;;;;;;;;;;;32.70;35.36;94809.69;5093200;28;1044;-52
2022/07/27 11:00:49;;;;;;;;;;;;;;;32.57;33.87;94806.63;5092716;28;1399;-52
2022/07/27 11:03:32;;;;;;;;;;;;;;;32.65;35.09;94805.91;5093288;28;968;-51
2022/07/27 11:06:06;;;;;;;;;;;;;;;32.79;34.56;94802.31;5093040;28;972;-52
2022/07/27 11:08:36;;;;;;;;;;;;;;;32.86;34.70;94799.94;5093282;28;1045;-52
2022/07/27 11:11:04;;;;;;;;;;;;;;;32.83;34.61;94804.13;5093067;28;1021;-52
2022/07/27 11:13:33;;;;;;;;;;;;;;;32.81;34.79;94787.03;5093066;28;1051;-52
2022/07/27 11:16:03;;;;;;;;;;;;;;;32.78;33.61;94795.97;5093267;28;1906;-52
2022/07/27 11:18:30;;;;;;;;;;;;;;;32.82;33.59;94798.91;5093109;28;1096;-52
2022/07/27 11:21:15;;;;;;;;;;;;;;;32.87;33.81;94777.47;5093010;28;918;-52
2022/07/27 11:23:45;;;;;;;;;;;;;;;32.92;31.76;94786.81;5092848;28;1242;-52
2022/07/27 11:26:12;;;;;;;;;;;;;;;32.91;32.06;94780.44;5092977;28;1067;-52
2022/07/27 11:28:38;;;;;;;;;;;;;;;32.99;33.32;94776.94;5093058;28;985;-52
2022/07/27 11:31:05;;;;;;;;;;;;;;;33.05;32.32;94775.69;5093058;28;970;-52
2022/07/27 11:33:31;;;;;;;;;;;;;;;33.11;32.46;94767.28;5092894;28;962;-52
2022/07/27 11:36:01;;;;;;;;;;;;;;;33.13;29.77;94774.13;5092654;28;1988;-52
2022/07/27 11:38:27;;;;;;;;;;;;;;;33.15;30.98;94773.84;5092756;28;1028;-52
2022/07/27 11:40:54;;;;;;;;;;;;;;;33.16;30.04;94770.75;5092906;28;997;-52
2022/07/27 11:43:32;;;;;;;;;;;;;;;33.19;29.62;94759.03;5085037;28;1965;-52
2022/07/27 11:46:10;;;;;;;;;;;;;;;33.23;30.83;94759.22;5072757;28;1039;-52
2022/07/27 11:48:36;;;;;;;;;;;;;;;33.12;29.15;94758.66;5072473;28;1024;-52
2022/07/27 11:51:02;;;;;;;;;;;;;;;33.13;28.63;94756.72;5072784;28;1005;-52
2022/07/27 11:53:29;;;;;;;;;;;;;;;33.21;27.83;94754.00;5075983;28;1065;-52
2022/07/27 11:55:55;;;;;;;;;;;;;;;33.29;28.76;94744.09;5076223;28;1902;-52
2022/07/27 11:58:21;;;;;;;;;;;;;;;33.36;27.74;94746.44;5075961;28;1119;-51
2022/07/27 12:00:47;;;;;;;;;;;;;;;33.33;29.42;94744.31;5076151;28;1034;-51
2022/07/27 12:03:19;;;;;;;;;;;;;;;33.37;28.37;94740.59;5075799;28;990;-51
2022/07/27 12:05:49;;;;;;;;;;;;;;;33.42;27.25;94743.22;5075717;28;1068;-52
2022/07/27 12:08:16;;;;;;;;;;;;;;;33.47;29.14;94731.19;5075619;28;1136;-52
2022/07/27 12:10:58;;;;;;;;;;;;;;;33.52;28.72;94728.28;5076052;28;1032;-51
2022/07/27 12:13:34;;;;;;;;;;;;;;;33.52;29.62;94721.94;5075619;28;973;-51
2022/07/27 12:16:00;;;;;;;;;;;;;;;33.57;28.85;94719.84;5075548;28;2028;-52
2022/07/27 12:18:39;;;;;;;;;;;;;;;33.65;28.24;94721.06;5075799;28;1033;-52
2022/07/27 12:21:14;;;;;;;;;;;;;;;33.76;27.54;94718.81;5075809;28;996;-52
2022/07/27 12:23:50;;;;;;;;;;;;;;;33.79;27.95;94719.00;5077263;28;1362;-52
2022/07/27 12:26:20;;;;;;;;;;;;;;;33.83;29.03;94711.69;5075587;28;1001;-52
2022/07/27 12:29:03;;;;;;;;;;;;;;;33.91;29.02;94701.75;5075251;28;1040;-52
2022/07/27 12:31:29;;;;;;;;;;;;;;;33.93;28.07;94705.03;5075686;28;970;-52
2022/07/27 12:33:56;;;;;;;;;;;;;;;33.93;28.85;94702.25;5075348;28;957;-52
2022/07/27 12:36:26;;;;;;;;;;;;;;;33.89;26.92;94704.03;5057357;28;1906;-52
2022/07/27 12:38:52;;;;;;;;;;;;;;;33.97;27.45;94694.13;5075187;28;1010;-52
2022/07/27 12:41:22;;;;;;;;;;;;;;;34.01;28.56;94690.38;5075087;28;1860;-52
2022/07/27 12:44:02;;;;;;;;;;;;;;;33.94;29.12;94692.81;5086378;28;1241;-52
2022/07/27 12:46:29;;;;;;;;;;;;;;;33.79;28.42;94694.06;5095567;28;1167;-52
2022/07/27 12:48:55;;;;;;;;;;;;;;;33.77;29.20;94685.25;5095313;28;968;-52
2022/07/27 12:51:22;;;;;;;;;;;;;;;33.78;27.97;94686.06;5095180;28;1092;-52
2022/07/27 12:53:48;;;;;;;;;;;;;;;33.76;28.48;94689.16;5095052;28;1076;-52
2022/07/27 12:56:14;;;;;;;;;;;;;;;33.63;28.10;94684.50;5095261;28;1988;-52
2022/07/27 12:58:56;;;;;;;;;;;;;;;33.42;27.80;94673.94;5095118;28;974;-52
2022/07/27 13:01:22;;;;;;;;;;;;;;;33.33;28.45;94675.03;5095273;28;1035;-52
2022/07/27 13:03:48;;;;;;;;;;;;;;;33.32;28.59;94674.22;5094490;28;1961;-52